»·PEaware :: RSP251 KGEG-KLMT

RSP251 :: KGEG-KLMT

FLIGHT INFORMATION

Flight Status: Arrived
Operator: Unknown
More flights by this operator :: More flights under this callsign
Pilot: Tyler J. (19619)
Aircraft: EMBRAER ERJ-135/140
(E135)
More flights by this aircraft type
Origin: KGEG Spokane Intl
United States
Destination: KLMT Klamath Falls Intl
United States
More flights between these airports :: More routes between these airports
Route: ALW V536 DSD LMT
File this flight plan on PilotEdge
Remarks:
Altitude:
(Current/Filed)
32,000ft
Speed:
(Current/Filed)
410kts
Departed: 24-Aug-19 07:59 PM
Arrived: 24-Aug-19 09:10 PM
Distance/Time
Traveled:
373nm/1:11
Distance/Time
To Go:
Arrived

Flight Plot

Page will automatically refresh every two minutes.

Flight plan parsing failed; only flown route is shown


Map Options




Map Legend


Flown Route
Filed Route
Departure Airport
Arrival Airport
Navaid (VOR, NDB)
Fix

Horizontal Profiles

Position Reports

Time Latitude Longitude Heading Altitude Ground
Speed
24-Aug-19 19:30 47.624308 -117.522582 245 2375ft 0kts
24-Aug-19 19:31 47.624308 -117.522582 245 2375ft 0kts
24-Aug-19 19:32 47.624308 -117.522582 245 2375ft 0kts
24-Aug-19 19:33 47.624308 -117.522582 245 2375ft 0kts
24-Aug-19 19:34 47.624308 -117.522582 245 2375ft 0kts
24-Aug-19 19:35 47.624308 -117.522582 245 2375ft 0kts
24-Aug-19 19:36 47.624308 -117.522582 245 2375ft 0kts
24-Aug-19 19:37 47.624308 -117.522582 245 2375ft 0kts
24-Aug-19 19:38 47.624308 -117.522582 245 2375ft 0kts
24-Aug-19 19:39 47.624308 -117.522582 245 2375ft 0kts
24-Aug-19 19:40 47.624308 -117.522582 245 2375ft 0kts
24-Aug-19 19:41 47.624308 -117.522582 245 2375ft 0kts
24-Aug-19 19:42 47.624308 -117.522582 245 2375ft 0kts
24-Aug-19 19:43 47.624308 -117.522583 245 2375ft 0kts
24-Aug-19 19:44 47.624307 -117.522585 245 2375ft 0kts
24-Aug-19 19:45 47.624306 -117.522590 245 2375ft 0kts
24-Aug-19 19:46 47.624305 -117.522594 245 2375ft 0kts
24-Aug-19 19:47 47.624303 -117.522598 245 2375ft 0kts
24-Aug-19 19:48 47.624302 -117.522603 245 2375ft 0kts
24-Aug-19 19:49 47.624301 -117.522607 245 2375ft 0kts
24-Aug-19 19:50 47.624299 -117.522611 245 2375ft 0kts
24-Aug-19 19:51 47.624298 -117.522616 245 2375ft 0kts
24-Aug-19 19:52 47.624297 -117.522620 245 2375ft 0kts
24-Aug-19 19:53 47.624288 -117.522649 245 2375ft 1kts
24-Aug-19 19:55 47.624322 -117.523066 298 2375ft 0kts
24-Aug-19 19:56 47.626066 -117.522159 45 2375ft 13kts
24-Aug-19 19:57 47.629627 -117.516936 36 2375ft 12kts
24-Aug-19 19:58 47.630945 -117.518644 237 2375ft 5kts
24-Aug-19 19:59 47.616068 -117.541173 227 3003ft 150kts
24-Aug-19 20:00 47.579499 -117.590533 225 5777ft 215kts
24-Aug-19 20:01 47.526842 -117.663022 225 8589ft 270kts
24-Aug-19 20:02 47.468696 -117.741806 210 11782ft 322kts
24-Aug-19 20:03 47.370257 -117.766982 197 12745ft 375kts
24-Aug-19 20:04 47.271850 -117.808605 198 15586ft 366kts
24-Aug-19 20:05 47.173930 -117.849424 200 18133ft 365kts
24-Aug-19 20:06 47.076315 -117.889974 201 20637ft 363kts
24-Aug-19 20:07 46.979844 -117.929784 204 23322ft 351kts
24-Aug-19 20:08 46.885788 -117.968629 205 25302ft 359kts
24-Aug-19 20:09 46.792252 -118.006845 207 27929ft 338kts
24-Aug-19 20:10 46.697663 -118.045943 203 28952ft 372kts
24-Aug-19 20:11 46.596607 -118.087076 205 30689ft 372kts
24-Aug-19 20:11 46.513621 -118.120805 202 31862ft 378kts
24-Aug-19 20:13 46.387829 -118.171975 201 31997ft 425kts
24-Aug-19 20:14 46.269128 -118.219773 200 32003ft 458kts
24-Aug-19 20:14 46.166114 -118.261017 196 32000ft 458kts
24-Aug-19 20:16 46.035508 -118.348170 237 31986ft 441kts
24-Aug-19 20:16 45.973836 -118.466012 240 31962ft 448kts
24-Aug-19 20:17 45.895086 -118.607278 234 31971ft 456kts
24-Aug-19 20:19 45.799833 -118.769377 231 31989ft 453kts
24-Aug-19 20:19 45.731631 -118.883021 229 31999ft 449kts
24-Aug-19 20:20 45.651409 -119.017888 230 31998ft 442kts
24-Aug-19 20:21 45.574359 -119.149142 230 31997ft 438kts
24-Aug-19 20:22 45.495735 -119.282145 235 31982ft 438kts
24-Aug-19 20:23 45.416991 -119.414754 234 31984ft 439kts
24-Aug-19 20:24 45.337608 -119.547708 236 31980ft 443kts
24-Aug-19 20:25 45.257076 -119.681941 238 31977ft 447kts
24-Aug-19 20:26 45.176635 -119.815285 237 31975ft 442kts
24-Aug-19 20:27 45.096181 -119.948072 238 31970ft 443kts
24-Aug-19 20:28 45.015998 -120.079758 238 31963ft 440kts
24-Aug-19 20:29 44.936580 -120.209533 237 31975ft 431kts
24-Aug-19 20:30 44.858578 -120.336419 238 31970ft 424kts
24-Aug-19 20:31 44.782097 -120.460326 236 31986ft 414kts
24-Aug-19 20:32 44.706997 -120.581467 237 31983ft 408kts
24-Aug-19 20:33 44.631978 -120.702062 235 31997ft 411kts
24-Aug-19 20:34 44.557323 -120.821494 235 31999ft 415kts
24-Aug-19 20:35 44.481201 -120.942680 235 31751ft 413kts
24-Aug-19 20:36 44.404370 -121.064496 235 29871ft 415kts
24-Aug-19 20:37 44.327134 -121.186352 233 27961ft 417kts
24-Aug-19 20:38 44.244850 -121.295489 208 26067ft 410kts
24-Aug-19 20:39 44.132968 -121.329486 189 24235ft 424kts
24-Aug-19 20:40 44.018940 -121.352525 188 23995ft 406kts
24-Aug-19 20:41 43.909067 -121.374984 189 23998ft 392kts
24-Aug-19 20:42 43.801060 -121.397164 189 23239ft 400kts
24-Aug-19 20:43 43.688473 -121.420261 190 21841ft 415kts
24-Aug-19 20:44 43.573654 -121.443738 192 20444ft 417kts
24-Aug-19 20:45 43.459490 -121.467010 192 19047ft 413kts
24-Aug-19 20:46 43.346537 -121.489964 192 17645ft 407kts
24-Aug-19 20:47 43.234952 -121.512576 192 16246ft 404kts
24-Aug-19 20:48 43.127577 -121.534221 192 14878ft 394kts
24-Aug-19 20:49 43.019879 -121.555884 191 13474ft 387kts
24-Aug-19 20:50 42.913999 -121.577121 191 12073ft 383kts
24-Aug-19 20:51 42.809426 -121.598022 190 10677ft 378kts
24-Aug-19 20:52 42.710591 -121.595055 187 9884ft 324kts
24-Aug-19 20:53 42.618173 -121.593611 174 9870ft 333kts
24-Aug-19 20:54 42.526615 -121.578182 174 9867ft 330kts
24-Aug-19 20:55 42.435405 -121.563115 174 9870ft 329kts
24-Aug-19 20:56 42.349320 -121.548918 174 9228ft 286kts
24-Aug-19 20:57 42.272202 -121.535578 174 8872ft 274kts
24-Aug-19 20:58 42.197782 -121.522671 174 8873ft 264kts
24-Aug-19 20:59 42.122418 -121.510761 174 8805ft 277kts
24-Aug-19 21:00 42.046592 -121.500231 178 8949ft 273kts
24-Aug-19 21:01 41.970767 -121.495187 178 9059ft 260kts
24-Aug-19 21:02 41.906200 -121.517262 224 8990ft 230kts
24-Aug-19 21:03 41.904865 -121.588098 318 8892ft 214kts
24-Aug-19 21:04 41.952101 -121.623540 336 8289ft 194kts
24-Aug-19 21:05 42.004187 -121.650021 335 7045ft 201kts
24-Aug-19 21:06 42.053528 -121.678469 336 5977ft 185kts
24-Aug-19 21:07 42.097091 -121.701773 336 5076ft 153kts
24-Aug-19 21:08 42.139034 -121.724244 335 4197ft 153kts
24-Aug-19 21:09 42.162270 -121.736558 337 4099ft 18kts
24-Aug-19 21:10 42.163580 -121.740908 278 4099ft 14kts
24-Aug-19 21:11 42.165148 -121.743907 343 4099ft 0kts
24-Aug-19 21:12 42.165149 -121.743907 343 4099ft 0kts
24-Aug-19 21:13 42.165149 -121.743907 343 4099ft 0kts
24-Aug-19 21:14 42.165149 -121.743907 343 4098ft 0kts
24-Aug-19 21:15 42.165149 -121.743907 343 4098ft 0kts
24-Aug-19 21:16 42.165149 -121.743907 343 4098ft 0kts
24-Aug-19 21:17 42.165149 -121.743907 343 4098ft 0kts
24-Aug-19 21:18 42.165149 -121.743907 343 4098ft 0kts
24-Aug-19 21:19 42.165149 -121.743907 343 4098ft 0kts

Navigation Log

Ident Type
Flight plan parsing failed, navigation log unavailable